Kalaleh Airport

Airport
ICAO code: 
OINE
IATA Code: 
KLM
Summary
ICAO Region: 
MID
Territory: 
Location: 
Barbar Qaleh, Golestan Province
Serving: 
Kalaleh
Elevation: 
425 ft
Coordinates: 
Aerial View: 
37° 22' 59.898" N, 55° 27' 4.907" E
Metar
Observation
OINE 260800Z 26008KT CAVOK 33/19 Q1003
Station
KALALEH
Date/Time
2022-06-26 08:00:00
Wind direction
260°
Wind speed
08 kts
Lowest cloud amount
clouds and visibility OK
Temperature
33°C
Dew point
19°C
Humidity
43%
QNH
1003 hPa
Weather condition
n/a

Airport 4km west of the city of Kalaleh, Iran.

Climatology

Cold desert climate (Köppen climate classification Bwk).

Runways

Designator Length Width Surface Rops
10/28 2218 28 ASP No/No
Airport map: 
Aerial View: 

SKYbrary Partners:

Safety knowledge contributed by: